Otisville, New York
Current Conditions -  °F | °C
As of 1:54 PM on Monday 22 Dec 2014 (Local Time) from KMGJ Reporting Station
Overcast Overcast  
Wind Chill: 37°   Ceiling: 1100
Heat Index: 37°   Visibility: 10mi
Dew Point: 31°   Wind: 3mph
Humidity: 79%   Direction: 20°NNE
Pressure: 30.23"   Gusts: NA
Location:  41.47°N, 74.54°W
Report Text: KMGJ 221854Z AUTO 02003KT 10SM BKN011 OVC021 03/M01 A3023 RMK AO2 SLP242 T00281006 TSNO
Loading
Personal Weather Stations






























Interactive Weather Map New forecast layout! Learn more

10-Day Weather Forecast

Advertisements
Track Severe Weather on mobile